LOT263 LEBL-EPLB
Flight info
| Callsign | LOT263 |
|---|---|
| Flight time | 2h 40m |
| Altitude | 34000 |
| Route | AGENA DCT NETUP DCT STP DCT NOSTA DCT NOPMU DCT NOBMI DCT MALUG/N0462F350 DCT ABLOM DCT ORTYN DCT BABKO DCT KOTEK T709 LULIN DCT GAVDU |
| Aircraft | B738/M-SDE2E3FGHIRWXY/LB1 |
Departure
| Time | 2026-04-11 05:58 |
|---|---|
| Airport | Josep Tarradellas Barcelona-El Prat Airport (LEBL) |
Arrival
| Time | 2026-04-11 08:38 |
|---|---|
| Airport | Lublin Airport (EPLB) |
| Time | Latitude | Longitude | Altitude | Speed | Heading |
|---|---|---|---|---|---|
| 2026-04-11 05:37 | 41.30059 | 2.07514 | 20 ft | 0 kts | 336° |
| 2026-04-11 05:48 | 41.30048 | 2.07521 | 21 ft | 4 kts | 338° |
| 2026-04-11 05:48 | 41.30022 | 2.07532 | 21 ft | 4 kts | 347° |
| 2026-04-11 05:48 | 41.29996 | 2.07538 | 18 ft | 3 kts | 356° |
| 2026-04-11 05:49 | 41.29993 | 2.07538 | 18 ft | 1 kts | 356° |
| 2026-04-11 05:51 | 41.29996 | 2.07542 | 18 ft | 1 kts | 38° |
| 2026-04-11 05:52 | 41.30003 | 2.07576 | 17 ft | 9 kts | 72° |
| 2026-04-11 05:52 | 41.30009 | 2.07671 | 19 ft | 12 kts | 121° |
| 2026-04-11 05:52 | 41.29942 | 2.07737 | 15 ft | 12 kts | 124° |
| 2026-04-11 05:52 | 41.29956 | 2.07844 | 18 ft | 12 kts | 66° |
| 2026-04-11 05:53 | 41.29991 | 2.07950 | 16 ft | 14 kts | 66° |
| 2026-04-11 05:53 | 41.30035 | 2.08081 | 18 ft | 18 kts | 65° |
| 2026-04-11 05:53 | 41.30091 | 2.08245 | 18 ft | 21 kts | 65° |
| 2026-04-11 05:53 | 41.30157 | 2.08438 | 21 ft | 24 kts | 65° |
| 2026-04-11 05:54 | 41.30217 | 2.08613 | 20 ft | 20 kts | 65° |
| 2026-04-11 05:54 | 41.30275 | 2.08778 | 18 ft | 19 kts | 64° |
| 2026-04-11 05:54 | 41.30331 | 2.08939 | 17 ft | 19 kts | 66° |
| 2026-04-11 05:54 | 41.30383 | 2.09096 | 17 ft | 18 kts | 66° |
| 2026-04-11 05:55 | 41.30433 | 2.09247 | 20 ft | 18 kts | 66° |
| 2026-04-11 05:55 | 41.30483 | 2.09390 | 18 ft | 17 kts | 65° |
| 2026-04-11 05:55 | 41.30532 | 2.09529 | 18 ft | 16 kts | 65° |
| 2026-04-11 05:55 | 41.30579 | 2.09664 | 19 ft | 16 kts | 65° |
| 2026-04-11 05:56 | 41.30562 | 2.09764 | 16 ft | 0 kts | 158° |
| 2026-04-11 05:56 | 41.30550 | 2.09770 | 16 ft | 5 kts | 157° |
| 2026-04-11 05:56 | 41.30506 | 2.09796 | 15 ft | 9 kts | 156° |
| 2026-04-11 05:57 | 41.30443 | 2.09833 | 16 ft | 11 kts | 156° |
| 2026-04-11 05:57 | 41.30380 | 2.09814 | 16 ft | 10 kts | 236° |
| 2026-04-11 05:57 | 41.30372 | 2.09791 | 16 ft | 0 kts | 246° |
| 2026-04-11 05:57 | 41.30347 | 2.09716 | 18 ft | 34 kts | 246° |
| 2026-04-11 05:58 | 41.30148 | 2.09132 | 17 ft | 103 kts | 246° |
| 2026-04-11 05:58 | 41.29766 | 2.08019 | 20 ft | 160 kts | 249° |
| 2026-04-11 05:58 | 41.29246 | 2.06567 | 412 ft | 180 kts | 250° |
| 2026-04-11 05:58 | 41.28738 | 2.05019 | 1116 ft | 189 kts | 246° |
| 2026-04-11 05:59 | 41.28180 | 2.03384 | 1723 ft | 201 kts | 246° |
| 2026-04-11 05:59 | 41.27584 | 2.01650 | 2307 ft | 206 kts | 245° |
| 2026-04-11 05:59 | 41.26976 | 1.99892 | 2844 ft | 213 kts | 244° |
| 2026-04-11 05:59 | 41.26322 | 1.98110 | 3362 ft | 221 kts | 236° |
| 2026-04-11 06:00 | 41.25137 | 1.96804 | 3863 ft | 228 kts | 203° |
| 2026-04-11 06:00 | 41.23568 | 1.96251 | 4365 ft | 235 kts | 201° |
| 2026-04-11 06:00 | 41.22278 | 1.95020 | 4877 ft | 227 kts | 229° |
| 2026-04-11 06:00 | 41.21132 | 1.93565 | 5378 ft | 228 kts | 218° |
| 2026-04-11 06:01 | 41.19864 | 1.92337 | 5900 ft | 228 kts | 217° |
| 2026-04-11 06:01 | 41.18562 | 1.91122 | 6398 ft | 229 kts | 216° |
| 2026-04-11 06:01 | 41.17106 | 1.90258 | 6870 ft | 234 kts | 189° |
| 2026-04-11 06:01 | 41.15475 | 1.90488 | 7384 ft | 242 kts | 160° |
| 2026-04-11 06:02 | 41.13993 | 1.91642 | 7947 ft | 252 kts | 147° |
| 2026-04-11 06:02 | 41.12584 | 1.93065 | 8476 ft | 255 kts | 144° |
| 2026-04-11 06:02 | 41.11183 | 1.94509 | 8988 ft | 255 kts | 145° |
| 2026-04-11 06:02 | 41.09778 | 1.95936 | 9515 ft | 254 kts | 145° |
| 2026-04-11 06:03 | 41.08365 | 1.97357 | 10032 ft | 255 kts | 145° |
| 2026-04-11 06:03 | 41.06962 | 1.98753 | 10521 ft | 255 kts | 147° |
| 2026-04-11 06:03 | 41.05460 | 2.00042 | 11033 ft | 259 kts | 151° |
| 2026-04-11 06:03 | 41.03897 | 2.01296 | 11562 ft | 266 kts | 151° |
| 2026-04-11 06:04 | 41.02284 | 2.02595 | 12025 ft | 276 kts | 151° |
| 2026-04-11 06:04 | 41.00627 | 2.03941 | 12499 ft | 285 kts | 150° |
| 2026-04-11 06:04 | 40.99028 | 2.05586 | 12944 ft | 299 kts | 131° |
| 2026-04-11 06:04 | 40.97837 | 2.07849 | 13462 ft | 307 kts | 125° |
| 2026-04-11 06:05 | 40.96617 | 2.10226 | 13924 ft | 316 kts | 126° |
| 2026-04-11 06:05 | 40.95339 | 2.12657 | 14370 ft | 325 kts | 127° |
| 2026-04-11 06:05 | 40.94022 | 2.15136 | 14818 ft | 334 kts | 127° |
| 2026-04-11 06:05 | 40.92667 | 2.17673 | 15257 ft | 342 kts | 127° |
| 2026-04-11 06:06 | 40.89844 | 2.22941 | 16178 ft | 358 kts | 127° |
| 2026-04-11 06:06 | 40.88430 | 2.25704 | 16629 ft | 366 kts | 119° |
| 2026-04-11 06:06 | 40.87688 | 2.28895 | 17069 ft | 375 kts | 95° |
| 2026-04-11 06:07 | 40.87958 | 2.32333 | 17576 ft | 381 kts | 72° |
| 2026-04-11 06:07 | 40.89154 | 2.35461 | 18054 ft | 385 kts | 52° |
| 2026-04-11 06:07 | 40.90818 | 2.38260 | 18530 ft | 389 kts | 51° |
| 2026-04-11 06:07 | 40.92512 | 2.41088 | 18946 ft | 395 kts | 51° |
| 2026-04-11 06:08 | 40.94217 | 2.43947 | 19364 ft | 400 kts | 51° |
| 2026-04-11 06:08 | 40.95947 | 2.46869 | 19808 ft | 404 kts | 51° |
| 2026-04-11 06:08 | 40.97685 | 2.49826 | 20251 ft | 408 kts | 51° |
| 2026-04-11 06:08 | 40.99422 | 2.52798 | 20694 ft | 412 kts | 51° |
| 2026-04-11 06:09 | 41.01168 | 2.55794 | 21147 ft | 415 kts | 51° |
| 2026-04-11 06:09 | 41.02927 | 2.58821 | 21604 ft | 418 kts | 51° |
| 2026-04-11 06:09 | 41.04715 | 2.61901 | 22075 ft | 420 kts | 51° |
| 2026-04-11 06:09 | 41.06505 | 2.64987 | 22554 ft | 422 kts | 51° |
| 2026-04-11 06:10 | 41.08300 | 2.68084 | 23038 ft | 424 kts | 51° |
| 2026-04-11 06:10 | 41.10100 | 2.71193 | 23518 ft | 426 kts | 51° |
| 2026-04-11 06:10 | 41.11913 | 2.74326 | 23940 ft | 427 kts | 52° |
| 2026-04-11 06:10 | 41.13709 | 2.77433 | 24346 ft | 428 kts | 52° |
| 2026-04-11 06:11 | 41.15521 | 2.80572 | 24763 ft | 429 kts | 52° |
| 2026-04-11 06:11 | 41.17337 | 2.83720 | 25192 ft | 430 kts | 52° |
| 2026-04-11 06:11 | 41.19158 | 2.86881 | 25620 ft | 430 kts | 53° |
| 2026-04-11 06:11 | 41.20971 | 2.90032 | 26056 ft | 430 kts | 53° |
| 2026-04-11 06:12 | 41.22784 | 2.93186 | 26501 ft | 430 kts | 53° |
| 2026-04-11 06:12 | 41.24599 | 2.96347 | 26952 ft | 429 kts | 53° |
| 2026-04-11 06:12 | 41.26412 | 2.99507 | 27411 ft | 428 kts | 53° |
| 2026-04-11 06:12 | 41.28215 | 3.02654 | 27872 ft | 427 kts | 54° |
| 2026-04-11 06:13 | 41.30013 | 3.05793 | 28333 ft | 426 kts | 54° |
| 2026-04-11 06:13 | 41.31781 | 3.08886 | 28822 ft | 424 kts | 54° |
| 2026-04-11 06:13 | 41.33563 | 3.12005 | 29293 ft | 423 kts | 54° |
| 2026-04-11 06:13 | 41.35339 | 3.15117 | 29776 ft | 420 kts | 54° |
| 2026-04-11 06:14 | 41.37103 | 3.18211 | 30242 ft | 417 kts | 54° |
| 2026-04-11 06:14 | 41.38854 | 3.21284 | 30674 ft | 414 kts | 54° |
| 2026-04-11 06:14 | 41.40571 | 3.24301 | 31099 ft | 411 kts | 54° |
| 2026-04-11 06:14 | 41.42287 | 3.27320 | 31545 ft | 407 kts | 54° |
| 2026-04-11 06:15 | 41.43984 | 3.30309 | 31989 ft | 402 kts | 55° |
| 2026-04-11 06:15 | 41.45665 | 3.33271 | 32440 ft | 397 kts | 55° |
| 2026-04-11 06:15 | 41.47324 | 3.36200 | 32899 ft | 392 kts | 55° |
| 2026-04-11 06:15 | 41.48956 | 3.39083 | 33355 ft | 386 kts | 55° |
| 2026-04-11 06:16 | 41.50565 | 3.41926 | 33652 ft | 385 kts | 55° |
| 2026-04-11 06:16 | 41.53807 | 3.47694 | 33817 ft | 393 kts | 58° |
| 2026-04-11 06:16 | 41.54966 | 3.50962 | 33830 ft | 390 kts | 81° |
| 2026-04-11 06:17 | 41.55460 | 3.54533 | 33922 ft | 392 kts | 83° |
| 2026-04-11 06:17 | 41.56576 | 3.61756 | 33943 ft | 403 kts | 81° |
| 2026-04-11 06:18 | 41.57803 | 3.69160 | 33992 ft | 412 kts | 80° |
| 2026-04-11 06:18 | 41.59054 | 3.76746 | 33950 ft | 424 kts | 80° |
| 2026-04-11 06:19 | 41.60315 | 3.84490 | 33954 ft | 433 kts | 80° |
| 2026-04-11 06:19 | 41.61602 | 3.92459 | 33958 ft | 443 kts | 80° |
| 2026-04-11 06:19 | 41.62443 | 3.96457 | 33933 ft | 450 kts | 69° |
| 2026-04-11 06:20 | 41.63932 | 4.00172 | 33973 ft | 456 kts | 56° |
| 2026-04-11 06:20 | 41.65934 | 4.03428 | 33939 ft | 462 kts | 45° |
| 2026-04-11 06:20 | 41.68289 | 4.06387 | 33968 ft | 466 kts | 43° |
| 2026-04-11 06:21 | 41.73099 | 4.12363 | 33953 ft | 474 kts | 44° |
| 2026-04-11 06:21 | 41.77944 | 4.18468 | 33951 ft | 481 kts | 44° |
| 2026-04-11 06:22 | 41.82778 | 4.24632 | 33942 ft | 483 kts | 44° |
| 2026-04-11 06:22 | 41.87655 | 4.30882 | 33943 ft | 484 kts | 44° |
| 2026-04-11 06:23 | 41.92519 | 4.37130 | 33938 ft | 483 kts | 44° |
| 2026-04-11 06:23 | 41.97364 | 4.43364 | 33939 ft | 482 kts | 44° |
| 2026-04-11 06:24 | 42.02200 | 4.49600 | 33941 ft | 480 kts | 44° |
| 2026-04-11 06:24 | 42.06987 | 4.55785 | 33946 ft | 479 kts | 44° |
| 2026-04-11 06:25 | 42.11790 | 4.62005 | 33949 ft | 478 kts | 45° |
| 2026-04-11 06:25 | 42.16577 | 4.68219 | 33944 ft | 477 kts | 45° |
| 2026-04-11 06:26 | 42.21344 | 4.74420 | 33945 ft | 476 kts | 45° |
| 2026-04-11 06:26 | 42.26098 | 4.80618 | 33950 ft | 475 kts | 45° |
| 2026-04-11 06:27 | 42.30856 | 4.86835 | 33961 ft | 478 kts | 45° |
| 2026-04-11 06:27 | 42.35636 | 4.93094 | 33959 ft | 483 kts | 45° |
| 2026-04-11 06:28 | 42.40472 | 4.99442 | 33950 ft | 485 kts | 45° |
| 2026-04-11 06:28 | 42.45322 | 5.05821 | 33954 ft | 486 kts | 45° |
| 2026-04-11 06:29 | 42.50175 | 5.12220 | 33960 ft | 486 kts | 45° |
| 2026-04-11 06:29 | 42.55012 | 5.18611 | 33957 ft | 485 kts | 45° |
| 2026-04-11 06:30 | 42.59815 | 5.24972 | 33966 ft | 485 kts | 45° |
| 2026-04-11 06:30 | 42.64639 | 5.31376 | 33968 ft | 484 kts | 45° |
| 2026-04-11 06:31 | 42.69453 | 5.37782 | 33974 ft | 484 kts | 45° |
| 2026-04-11 06:31 | 42.74260 | 5.44192 | 33976 ft | 483 kts | 45° |
| 2026-04-11 06:32 | 42.79057 | 5.50604 | 33973 ft | 483 kts | 45° |
| 2026-04-11 06:32 | 42.83828 | 5.56997 | 33980 ft | 483 kts | 45° |
| 2026-04-11 06:33 | 42.88617 | 5.63428 | 33981 ft | 484 kts | 45° |
| 2026-04-11 06:33 | 42.92603 | 5.68793 | 33990 ft | 484 kts | 45° |
| 2026-04-11 06:34 | 42.97396 | 5.75256 | 33991 ft | 484 kts | 45° |
| 2026-04-11 06:34 | 43.01537 | 5.82421 | 34016 ft | 482 kts | 62° |
| 2026-04-11 06:35 | 43.04072 | 5.90892 | 34021 ft | 479 kts | 72° |
| 2026-04-11 06:35 | 43.06227 | 5.99453 | 34028 ft | 480 kts | 72° |
| 2026-04-11 06:36 | 43.08447 | 6.08065 | 34017 ft | 480 kts | 72° |
| 2026-04-11 06:36 | 43.10696 | 6.16703 | 34017 ft | 480 kts | 72° |
| 2026-04-11 06:37 | 43.12934 | 6.25314 | 34021 ft | 480 kts | 72° |
| 2026-04-11 06:37 | 43.15152 | 6.33890 | 34024 ft | 481 kts | 72° |
| 2026-04-11 06:38 | 43.17381 | 6.42546 | 34023 ft | 481 kts | 72° |
| 2026-04-11 06:38 | 43.19599 | 6.51190 | 34028 ft | 481 kts | 72° |
| 2026-04-11 06:39 | 43.21918 | 6.59746 | 34013 ft | 482 kts | 65° |
| 2026-04-11 06:39 | 43.25587 | 6.67440 | 34034 ft | 483 kts | 54° |
| 2026-04-11 06:40 | 43.29615 | 6.74842 | 34020 ft | 484 kts | 54° |
| 2026-04-11 06:40 | 43.33567 | 6.82242 | 34036 ft | 484 kts | 54° |
| 2026-04-11 06:41 | 43.37375 | 6.89469 | 34043 ft | 484 kts | 54° |
| 2026-04-11 06:41 | 43.41314 | 6.96979 | 34042 ft | 484 kts | 54° |
| 2026-04-11 06:42 | 43.45252 | 7.04503 | 34050 ft | 484 kts | 54° |
| 2026-04-11 06:42 | 43.49183 | 7.12029 | 34045 ft | 484 kts | 54° |
| 2026-04-11 06:43 | 43.53090 | 7.19525 | 34043 ft | 484 kts | 54° |
| 2026-04-11 06:43 | 43.57011 | 7.27069 | 34047 ft | 484 kts | 54° |
| 2026-04-11 06:44 | 43.60933 | 7.34635 | 34048 ft | 484 kts | 54° |
| 2026-04-11 06:44 | 43.64846 | 7.42202 | 34044 ft | 484 kts | 54° |
| 2026-04-11 06:45 | 43.68765 | 7.49801 | 34037 ft | 485 kts | 54° |
| 2026-04-11 06:45 | 43.72646 | 7.57345 | 34034 ft | 485 kts | 54° |
| 2026-04-11 06:46 | 43.76557 | 7.64970 | 34034 ft | 485 kts | 55° |
| 2026-04-11 06:46 | 43.80444 | 7.72606 | 34029 ft | 485 kts | 54° |
| 2026-04-11 06:47 | 43.85161 | 7.79266 | 34037 ft | 484 kts | 36° |
| 2026-04-11 06:47 | 43.90539 | 7.84775 | 34028 ft | 485 kts | 37° |
| 2026-04-11 06:48 | 43.95852 | 7.90618 | 34034 ft | 485 kts | 43° |
| 2026-04-11 06:48 | 44.00233 | 7.96941 | 34046 ft | 485 kts | 47° |
| 2026-04-11 06:49 | 44.04807 | 8.03864 | 34048 ft | 486 kts | 47° |
| 2026-04-11 06:49 | 44.09406 | 8.10760 | 34051 ft | 486 kts | 47° |
| 2026-04-11 06:50 | 44.14024 | 8.17618 | 34050 ft | 486 kts | 46° |
| 2026-04-11 06:50 | 44.18644 | 8.24469 | 34038 ft | 487 kts | 46° |
| 2026-04-11 06:51 | 44.23276 | 8.31354 | 34044 ft | 487 kts | 46° |
| 2026-04-11 06:51 | 44.27907 | 8.38259 | 34036 ft | 487 kts | 46° |
| 2026-04-11 06:52 | 44.32536 | 8.45181 | 34040 ft | 487 kts | 46° |
| 2026-04-11 06:52 | 44.37167 | 8.52123 | 34044 ft | 487 kts | 46° |
| 2026-04-11 06:53 | 44.41751 | 8.59010 | 34042 ft | 487 kts | 46° |
| 2026-04-11 06:53 | 44.46381 | 8.65985 | 34051 ft | 487 kts | 46° |
| 2026-04-11 06:54 | 44.50986 | 8.72939 | 34055 ft | 487 kts | 46° |
| 2026-04-11 06:54 | 44.55604 | 8.79930 | 34050 ft | 487 kts | 46° |
| 2026-04-11 06:55 | 44.60172 | 8.86863 | 34045 ft | 487 kts | 46° |
| 2026-04-11 06:55 | 44.64779 | 8.93873 | 34051 ft | 487 kts | 46° |
| 2026-04-11 06:56 | 44.69352 | 9.00848 | 34049 ft | 487 kts | 46° |
| 2026-04-11 06:56 | 44.73936 | 9.07858 | 34050 ft | 487 kts | 46° |
| 2026-04-11 06:57 | 44.78527 | 9.14896 | 34042 ft | 487 kts | 46° |
| 2026-04-11 06:57 | 44.83115 | 9.21948 | 34038 ft | 487 kts | 46° |
| 2026-04-11 06:58 | 44.87654 | 9.28942 | 34043 ft | 487 kts | 46° |
| 2026-04-11 06:58 | 44.92243 | 9.36031 | 34050 ft | 487 kts | 46° |
| 2026-04-11 06:59 | 44.96804 | 9.43095 | 34052 ft | 487 kts | 46° |
| 2026-04-11 06:59 | 45.01353 | 9.50158 | 34048 ft | 487 kts | 45° |
| 2026-04-11 07:00 | 45.05916 | 9.57260 | 34051 ft | 487 kts | 45° |
| 2026-04-11 07:00 | 45.10434 | 9.64311 | 34049 ft | 487 kts | 45° |
| 2026-04-11 07:01 | 45.14991 | 9.71441 | 34049 ft | 487 kts | 45° |
| 2026-04-11 07:01 | 45.19520 | 9.78545 | 34044 ft | 487 kts | 45° |
| 2026-04-11 07:02 | 45.24061 | 9.85687 | 34048 ft | 487 kts | 45° |
| 2026-04-11 07:02 | 45.28572 | 9.92799 | 34051 ft | 487 kts | 45° |
| 2026-04-11 07:03 | 45.33100 | 9.99957 | 34043 ft | 487 kts | 45° |
| 2026-04-11 07:03 | 45.37630 | 10.07137 | 34045 ft | 487 kts | 45° |
| 2026-04-11 07:04 | 45.42132 | 10.14290 | 34052 ft | 487 kts | 45° |
| 2026-04-11 07:04 | 45.46646 | 10.21483 | 34051 ft | 487 kts | 45° |
| 2026-04-11 07:05 | 45.51152 | 10.28679 | 34050 ft | 487 kts | 45° |
| 2026-04-11 07:05 | 45.55660 | 10.35899 | 34072 ft | 486 kts | 45° |
| 2026-04-11 07:06 | 45.60070 | 10.42982 | 34055 ft | 486 kts | 45° |
| 2026-04-11 07:06 | 45.64572 | 10.50232 | 34070 ft | 486 kts | 45° |
| 2026-04-11 07:07 | 45.68766 | 10.57870 | 34069 ft | 488 kts | 50° |
| 2026-04-11 07:07 | 45.72719 | 10.65575 | 34065 ft | 489 kts | 50° |
| 2026-04-11 07:08 | 45.76740 | 10.73412 | 34053 ft | 489 kts | 50° |
| 2026-04-11 07:08 | 45.80790 | 10.81240 | 34071 ft | 487 kts | 49° |
| 2026-04-11 07:09 | 45.84849 | 10.89066 | 34068 ft | 488 kts | 49° |
| 2026-04-11 07:09 | 45.88775 | 10.96654 | 34080 ft | 488 kts | 49° |
| 2026-04-11 07:10 | 45.94723 | 11.08195 | 34075 ft | 488 kts | 49° |
| 2026-04-11 07:10 | 45.98709 | 11.15957 | 34073 ft | 488 kts | 49° |
| 2026-04-11 07:11 | 46.02737 | 11.23825 | 34087 ft | 488 kts | 49° |
| 2026-04-11 07:11 | 46.06418 | 11.31033 | 34089 ft | 488 kts | 49° |
| 2026-04-11 07:12 | 46.10445 | 11.38939 | 34096 ft | 488 kts | 49° |
| 2026-04-11 07:12 | 46.14418 | 11.46764 | 34086 ft | 487 kts | 49° |
| 2026-04-11 07:13 | 46.18273 | 11.54375 | 34092 ft | 487 kts | 49° |
| 2026-04-11 07:13 | 46.22244 | 11.62236 | 34093 ft | 486 kts | 49° |
| 2026-04-11 07:14 | 46.26195 | 11.70081 | 34063 ft | 487 kts | 48° |
| 2026-04-11 07:14 | 46.30163 | 11.77982 | 34087 ft | 487 kts | 48° |
| 2026-04-11 07:15 | 46.33943 | 11.85528 | 34085 ft | 488 kts | 48° |
| 2026-04-11 07:15 | 46.37791 | 11.93232 | 34066 ft | 488 kts | 48° |
| 2026-04-11 07:16 | 46.41760 | 12.01203 | 34075 ft | 486 kts | 48° |
| 2026-04-11 07:16 | 46.45620 | 12.08974 | 34097 ft | 487 kts | 48° |
| 2026-04-11 07:17 | 46.49568 | 12.16942 | 34103 ft | 487 kts | 48° |
| 2026-04-11 07:17 | 46.53519 | 12.24940 | 34119 ft | 488 kts | 48° |
| 2026-04-11 07:18 | 46.57479 | 12.32984 | 34121 ft | 488 kts | 48° |
| 2026-04-11 07:18 | 46.61399 | 12.40968 | 34105 ft | 487 kts | 48° |
| 2026-04-11 07:19 | 46.65316 | 12.48967 | 34118 ft | 487 kts | 48° |
| 2026-04-11 07:19 | 46.69170 | 12.56860 | 34109 ft | 487 kts | 48° |
| 2026-04-11 07:20 | 46.72648 | 12.65358 | 34116 ft | 496 kts | 58° |
| 2026-04-11 07:20 | 46.75578 | 12.74501 | 34067 ft | 498 kts | 59° |
| 2026-04-11 07:21 | 46.78453 | 12.83535 | 34063 ft | 498 kts | 59° |
| 2026-04-11 07:21 | 46.81410 | 12.92666 | 34072 ft | 498 kts | 58° |
| 2026-04-11 07:22 | 46.83824 | 13.00067 | 34078 ft | 499 kts | 58° |
| 2026-04-11 07:22 | 46.85306 | 13.04613 | 34371 ft | 492 kts | 58° |
| 2026-04-11 07:22 | 46.86772 | 13.09129 | 34748 ft | 487 kts | 58° |
| 2026-04-11 07:23 | 46.88212 | 13.13567 | 35061 ft | 484 kts | 58° |
| 2026-04-11 07:23 | 46.89671 | 13.18056 | 35045 ft | 489 kts | 58° |
| 2026-04-11 07:23 | 46.92545 | 13.26922 | 35075 ft | 493 kts | 58° |
| 2026-04-11 07:24 | 46.95467 | 13.35989 | 35083 ft | 494 kts | 58° |
| 2026-04-11 07:24 | 46.98374 | 13.45067 | 35086 ft | 486 kts | 58° |
| 2026-04-11 07:25 | 47.01224 | 13.53995 | 35075 ft | 481 kts | 58° |
| 2026-04-11 07:25 | 47.04019 | 13.62764 | 35097 ft | 477 kts | 57° |
| 2026-04-11 07:26 | 47.06832 | 13.71614 | 35099 ft | 477 kts | 57° |
| 2026-04-11 07:26 | 47.09626 | 13.80434 | 35093 ft | 477 kts | 58° |
| 2026-04-11 07:27 | 47.12425 | 13.89303 | 35090 ft | 479 kts | 57° |
| 2026-04-11 07:27 | 47.15213 | 13.98165 | 35098 ft | 482 kts | 57° |
| 2026-04-11 07:28 | 47.18017 | 14.07119 | 35101 ft | 484 kts | 57° |
| 2026-04-11 07:28 | 47.20824 | 14.16116 | 35099 ft | 485 kts | 57° |
| 2026-04-11 07:29 | 47.23645 | 14.25196 | 35095 ft | 485 kts | 57° |
| 2026-04-11 07:29 | 47.26442 | 14.34228 | 35098 ft | 485 kts | 57° |
| 2026-04-11 07:30 | 47.29218 | 14.43220 | 35105 ft | 484 kts | 57° |
| 2026-04-11 07:30 | 47.31928 | 14.52033 | 35130 ft | 483 kts | 57° |
| 2026-04-11 07:31 | 47.34688 | 14.61039 | 35140 ft | 482 kts | 57° |
| 2026-04-11 07:31 | 47.37434 | 14.70029 | 35125 ft | 481 kts | 57° |
| 2026-04-11 07:32 | 47.40176 | 14.79040 | 35154 ft | 479 kts | 57° |
| 2026-04-11 07:32 | 47.42901 | 14.88027 | 35133 ft | 479 kts | 57° |
| 2026-04-11 07:33 | 47.45602 | 14.96962 | 35135 ft | 479 kts | 57° |
| 2026-04-11 07:33 | 47.48317 | 15.05982 | 35146 ft | 479 kts | 57° |
| 2026-04-11 07:34 | 47.51027 | 15.15012 | 35135 ft | 480 kts | 57° |
| 2026-04-11 07:34 | 47.53727 | 15.24048 | 35140 ft | 480 kts | 56° |
| 2026-04-11 07:35 | 47.56408 | 15.33052 | 35135 ft | 480 kts | 56° |
| 2026-04-11 07:35 | 47.59068 | 15.42025 | 35145 ft | 478 kts | 56° |
| 2026-04-11 07:36 | 47.61750 | 15.51097 | 35141 ft | 478 kts | 56° |
| 2026-04-11 07:36 | 47.64417 | 15.60149 | 35165 ft | 478 kts | 56° |
| 2026-04-11 07:37 | 47.67079 | 15.69214 | 35129 ft | 480 kts | 56° |
| 2026-04-11 07:37 | 47.69738 | 15.78314 | 35156 ft | 479 kts | 56° |
| 2026-04-11 07:38 | 47.72363 | 15.87329 | 35141 ft | 480 kts | 56° |
| 2026-04-11 07:38 | 47.75004 | 15.96431 | 35149 ft | 480 kts | 56° |
| 2026-04-11 07:39 | 47.77640 | 16.05551 | 35150 ft | 479 kts | 56° |
| 2026-04-11 07:39 | 47.80217 | 16.14503 | 35161 ft | 478 kts | 56° |
| 2026-04-11 07:40 | 47.82810 | 16.23541 | 35159 ft | 478 kts | 56° |
| 2026-04-11 07:40 | 47.85362 | 16.32468 | 35158 ft | 477 kts | 56° |
| 2026-04-11 07:41 | 47.87909 | 16.41411 | 35158 ft | 476 kts | 56° |
| 2026-04-11 07:41 | 47.90497 | 16.50529 | 35163 ft | 476 kts | 56° |
| 2026-04-11 07:42 | 47.92990 | 16.59348 | 35167 ft | 476 kts | 56° |
| 2026-04-11 07:43 | 47.96812 | 16.72933 | 35165 ft | 475 kts | 56° |
| 2026-04-11 07:43 | 47.99350 | 16.81996 | 35162 ft | 474 kts | 56° |
| 2026-04-11 07:44 | 48.01817 | 16.90839 | 35170 ft | 474 kts | 56° |
| 2026-04-11 07:44 | 48.04326 | 16.99860 | 35166 ft | 473 kts | 56° |
| 2026-04-11 07:45 | 48.06958 | 17.08493 | 35154 ft | 458 kts | 46° |
| 2026-04-11 07:45 | 48.08764 | 17.12328 | 35164 ft | 441 kts | 37° |
| 2026-04-11 07:45 | 48.10775 | 17.15619 | 35175 ft | 437 kts | 35° |
| 2026-04-11 07:46 | 48.14907 | 17.22337 | 35172 ft | 438 kts | 35° |
| 2026-04-11 07:46 | 48.18982 | 17.29076 | 35167 ft | 439 kts | 36° |
| 2026-04-11 07:47 | 48.23101 | 17.35956 | 35163 ft | 439 kts | 36° |
| 2026-04-11 07:47 | 48.27151 | 17.42752 | 35162 ft | 440 kts | 36° |
| 2026-04-11 07:48 | 48.31219 | 17.49597 | 35161 ft | 440 kts | 36° |
| 2026-04-11 07:48 | 48.35283 | 17.56449 | 35158 ft | 440 kts | 36° |
| 2026-04-11 07:49 | 48.39360 | 17.63340 | 35158 ft | 440 kts | 36° |
| 2026-04-11 07:49 | 48.43407 | 17.70200 | 35151 ft | 440 kts | 36° |
| 2026-04-11 07:50 | 48.47274 | 17.76770 | 35157 ft | 439 kts | 36° |
| 2026-04-11 07:50 | 48.51120 | 17.83320 | 35163 ft | 439 kts | 36° |
| 2026-04-11 07:51 | 48.55153 | 17.90206 | 35159 ft | 439 kts | 36° |
| 2026-04-11 07:51 | 48.58357 | 17.95692 | 35161 ft | 438 kts | 36° |
| 2026-04-11 07:52 | 48.62013 | 18.01965 | 35163 ft | 438 kts | 36° |
| 2026-04-11 07:52 | 48.66039 | 18.08888 | 35149 ft | 437 kts | 36° |
| 2026-04-11 07:53 | 48.69733 | 18.15257 | 35154 ft | 437 kts | 36° |
| 2026-04-11 07:53 | 48.73732 | 18.22168 | 35148 ft | 437 kts | 37° |
| 2026-04-11 07:54 | 48.77697 | 18.29037 | 35141 ft | 437 kts | 37° |
| 2026-04-11 07:54 | 48.81699 | 18.35990 | 35134 ft | 437 kts | 37° |
| 2026-04-11 07:55 | 48.85621 | 18.42823 | 35144 ft | 437 kts | 37° |
| 2026-04-11 07:55 | 48.89610 | 18.49787 | 35136 ft | 438 kts | 37° |
| 2026-04-11 07:56 | 48.93397 | 18.56419 | 35143 ft | 439 kts | 37° |
| 2026-04-11 07:56 | 48.97350 | 18.63362 | 35155 ft | 438 kts | 37° |
| 2026-04-11 07:57 | 49.01345 | 18.70398 | 35163 ft | 438 kts | 37° |
| 2026-04-11 07:57 | 49.05341 | 18.77446 | 35141 ft | 439 kts | 37° |
| 2026-04-11 07:58 | 49.09297 | 18.84449 | 35137 ft | 438 kts | 37° |
| 2026-04-11 07:58 | 49.12677 | 18.90449 | 35142 ft | 438 kts | 37° |
| 2026-04-11 07:59 | 49.16650 | 18.97515 | 35138 ft | 437 kts | 37° |
| 2026-04-11 07:59 | 49.20518 | 19.04413 | 35157 ft | 437 kts | 37° |
| 2026-04-11 08:00 | 49.23931 | 19.10510 | 35126 ft | 440 kts | 38° |
| 2026-04-11 08:00 | 49.27915 | 19.17651 | 35117 ft | 440 kts | 38° |
| 2026-04-11 08:01 | 49.32066 | 19.23755 | 35113 ft | 420 kts | 25° |
| 2026-04-11 08:01 | 49.34528 | 19.26100 | 35103 ft | 407 kts | 16° |
| 2026-04-11 08:01 | 49.37038 | 19.27979 | 35134 ft | 406 kts | 16° |
| 2026-04-11 08:02 | 49.41993 | 19.31786 | 35123 ft | 408 kts | 17° |
| 2026-04-11 08:02 | 49.47057 | 19.35754 | 35122 ft | 409 kts | 17° |
| 2026-04-11 08:03 | 49.52116 | 19.39734 | 35119 ft | 410 kts | 17° |
| 2026-04-11 08:03 | 49.57166 | 19.43711 | 35117 ft | 412 kts | 18° |
| 2026-04-11 08:04 | 49.61997 | 19.48392 | 35125 ft | 428 kts | 30° |
| 2026-04-11 08:04 | 49.64157 | 19.51613 | 35128 ft | 439 kts | 37° |
| 2026-04-11 08:04 | 49.66207 | 19.55115 | 35135 ft | 440 kts | 37° |
| 2026-04-11 08:05 | 49.70185 | 19.61862 | 35132 ft | 440 kts | 37° |
| 2026-04-11 08:05 | 49.74316 | 19.68815 | 35132 ft | 441 kts | 37° |
| 2026-04-11 08:06 | 49.77305 | 19.73836 | 35132 ft | 442 kts | 37° |
| 2026-04-11 08:06 | 49.81747 | 19.81317 | 35135 ft | 442 kts | 37° |
| 2026-04-11 08:07 | 49.85213 | 19.87167 | 35149 ft | 442 kts | 37° |
| 2026-04-11 08:07 | 49.89226 | 19.93956 | 35145 ft | 443 kts | 38° |
| 2026-04-11 08:08 | 49.95939 | 20.05361 | 35148 ft | 443 kts | 38° |
| 2026-04-11 08:08 | 50.00095 | 20.12445 | 35151 ft | 443 kts | 38° |
| 2026-04-11 08:09 | 50.04206 | 20.19470 | 35142 ft | 444 kts | 38° |
| 2026-04-11 08:09 | 50.08369 | 20.26606 | 35137 ft | 444 kts | 38° |
| 2026-04-11 08:10 | 50.11802 | 20.32506 | 35129 ft | 444 kts | 38° |
| 2026-04-11 08:10 | 50.15816 | 20.39421 | 35133 ft | 444 kts | 38° |
| 2026-04-11 08:11 | 50.19935 | 20.46538 | 35126 ft | 445 kts | 39° |
| 2026-04-11 08:11 | 50.23967 | 20.53522 | 35117 ft | 445 kts | 39° |
| 2026-04-11 08:12 | 50.28090 | 20.60683 | 35134 ft | 446 kts | 39° |
| 2026-04-11 08:12 | 50.32225 | 20.67886 | 35126 ft | 446 kts | 39° |
| 2026-04-11 08:13 | 50.36380 | 20.75144 | 35133 ft | 447 kts | 39° |
| 2026-04-11 08:13 | 50.38454 | 20.78773 | 34939 ft | 451 kts | 39° |
| 2026-04-11 08:13 | 50.40553 | 20.82448 | 34447 ft | 450 kts | 39° |
| 2026-04-11 08:14 | 50.42613 | 20.86076 | 34032 ft | 444 kts | 39° |
| 2026-04-11 08:14 | 50.44665 | 20.89692 | 33550 ft | 439 kts | 39° |
| 2026-04-11 08:14 | 50.46652 | 20.93194 | 33068 ft | 434 kts | 39° |
| 2026-04-11 08:14 | 50.48660 | 20.96734 | 32607 ft | 430 kts | 40° |
| 2026-04-11 08:15 | 50.50648 | 21.00239 | 32036 ft | 428 kts | 40° |
| 2026-04-11 08:15 | 50.52623 | 21.03724 | 31466 ft | 427 kts | 40° |
| 2026-04-11 08:15 | 50.54592 | 21.07206 | 30908 ft | 425 kts | 40° |
| 2026-04-11 08:15 | 50.56527 | 21.10659 | 30371 ft | 425 kts | 43° |
| 2026-04-11 08:16 | 50.58257 | 21.14467 | 29733 ft | 433 kts | 52° |
| 2026-04-11 08:16 | 50.59572 | 21.18681 | 29106 ft | 438 kts | 60° |
| 2026-04-11 08:16 | 50.60748 | 21.22963 | 28484 ft | 435 kts | 60° |
| 2026-04-11 08:16 | 50.61960 | 21.27376 | 27854 ft | 433 kts | 61° |
| 2026-04-11 08:17 | 50.63159 | 21.31704 | 27242 ft | 431 kts | 61° |
| 2026-04-11 08:17 | 50.64355 | 21.35989 | 26653 ft | 428 kts | 61° |
| 2026-04-11 08:17 | 50.65568 | 21.40311 | 26047 ft | 426 kts | 62° |
| 2026-04-11 08:17 | 50.66763 | 21.44562 | 25473 ft | 423 kts | 62° |
| 2026-04-11 08:18 | 50.67955 | 21.48803 | 24908 ft | 421 kts | 63° |
| 2026-04-11 08:18 | 50.69136 | 21.53007 | 24347 ft | 419 kts | 63° |
| 2026-04-11 08:18 | 50.70309 | 21.57192 | 23815 ft | 416 kts | 63° |
| 2026-04-11 08:18 | 50.71480 | 21.61378 | 23173 ft | 414 kts | 63° |
| 2026-04-11 08:19 | 50.72636 | 21.65519 | 22540 ft | 411 kts | 63° |
| 2026-04-11 08:19 | 50.73769 | 21.69589 | 21915 ft | 406 kts | 64° |
| 2026-04-11 08:19 | 50.74886 | 21.73608 | 21281 ft | 395 kts | 64° |
| 2026-04-11 08:19 | 50.76009 | 21.77656 | 20657 ft | 385 kts | 64° |
| 2026-04-11 08:20 | 50.77050 | 21.81411 | 20093 ft | 383 kts | 64° |
| 2026-04-11 08:20 | 50.78116 | 21.85259 | 19526 ft | 383 kts | 64° |
| 2026-04-11 08:20 | 50.79190 | 21.89144 | 18964 ft | 383 kts | 64° |
| 2026-04-11 08:20 | 50.80248 | 21.92980 | 18384 ft | 376 kts | 64° |
| 2026-04-11 08:21 | 50.81275 | 21.96712 | 17747 ft | 368 kts | 64° |
| 2026-04-11 08:21 | 50.82291 | 22.00406 | 17121 ft | 361 kts | 64° |
| 2026-04-11 08:21 | 50.83284 | 22.04022 | 16510 ft | 354 kts | 64° |
| 2026-04-11 08:21 | 50.84262 | 22.07546 | 15924 ft | 347 kts | 62° |
| 2026-04-11 08:22 | 50.85393 | 22.10808 | 15418 ft | 338 kts | 56° |
| 2026-04-11 08:22 | 50.86636 | 22.13936 | 14879 ft | 332 kts | 55° |
| 2026-04-11 08:22 | 50.87867 | 22.17005 | 14360 ft | 327 kts | 56° |
| 2026-04-11 08:22 | 50.89056 | 22.20047 | 13831 ft | 322 kts | 56° |
| 2026-04-11 08:23 | 50.90209 | 22.23059 | 13264 ft | 318 kts | 57° |
| 2026-04-11 08:23 | 50.91346 | 22.26056 | 12731 ft | 313 kts | 57° |
| 2026-04-11 08:23 | 50.92338 | 22.29102 | 12232 ft | 309 kts | 68° |
| 2026-04-11 08:23 | 50.92940 | 22.32331 | 11782 ft | 304 kts | 73° |
| 2026-04-11 08:24 | 50.93438 | 22.35405 | 11351 ft | 299 kts | 73° |
| 2026-04-11 08:24 | 50.93970 | 22.38550 | 10979 ft | 292 kts | 72° |
| 2026-04-11 08:24 | 50.94511 | 22.41608 | 10651 ft | 284 kts | 72° |
| 2026-04-11 08:24 | 50.95046 | 22.44582 | 10377 ft | 278 kts | 72° |
| 2026-04-11 08:25 | 50.95580 | 22.47529 | 10107 ft | 277 kts | 72° |
| 2026-04-11 08:25 | 50.96110 | 22.50447 | 9826 ft | 275 kts | 72° |
| 2026-04-11 08:25 | 50.96641 | 22.53375 | 9513 ft | 274 kts | 72° |
| 2026-04-11 08:25 | 50.97164 | 22.56263 | 9216 ft | 272 kts | 72° |
| 2026-04-11 08:26 | 50.97685 | 22.59143 | 8918 ft | 271 kts | 72° |
| 2026-04-11 08:26 | 50.98220 | 22.62007 | 8619 ft | 269 kts | 66° |
| 2026-04-11 08:26 | 50.99243 | 22.64373 | 8309 ft | 262 kts | 38° |
| 2026-04-11 08:26 | 51.00651 | 22.66173 | 8046 ft | 260 kts | 37° |
| 2026-04-11 08:27 | 51.02036 | 22.68005 | 7761 ft | 259 kts | 38° |
| 2026-04-11 08:27 | 51.03415 | 22.69852 | 7468 ft | 258 kts | 38° |
| 2026-04-11 08:27 | 51.04791 | 22.71700 | 7196 ft | 257 kts | 38° |
| 2026-04-11 08:27 | 51.06160 | 22.73537 | 6901 ft | 257 kts | 38° |
| 2026-04-11 08:28 | 51.07516 | 22.75362 | 6650 ft | 255 kts | 38° |
| 2026-04-11 08:28 | 51.08870 | 22.77180 | 6381 ft | 253 kts | 38° |
| 2026-04-11 08:28 | 51.10208 | 22.78981 | 6117 ft | 252 kts | 38° |
| 2026-04-11 08:28 | 51.11527 | 22.80755 | 5857 ft | 250 kts | 38° |
| 2026-04-11 08:29 | 51.12852 | 22.82539 | 5591 ft | 249 kts | 38° |
| 2026-04-11 08:29 | 51.14166 | 22.84308 | 5320 ft | 248 kts | 38° |
| 2026-04-11 08:29 | 51.15475 | 22.86073 | 5114 ft | 244 kts | 38° |
| 2026-04-11 08:29 | 51.16771 | 22.87827 | 4973 ft | 238 kts | 39° |
| 2026-04-11 08:30 | 51.17809 | 22.89808 | 4961 ft | 230 kts | 57° |
| 2026-04-11 08:30 | 51.18579 | 22.91974 | 4948 ft | 220 kts | 57° |
| 2026-04-11 08:30 | 51.19333 | 22.94067 | 4778 ft | 216 kts | 57° |
| 2026-04-11 08:30 | 51.20074 | 22.96122 | 4532 ft | 211 kts | 57° |
| 2026-04-11 08:31 | 51.20802 | 22.98142 | 4237 ft | 208 kts | 56° |
| 2026-04-11 08:31 | 51.21506 | 23.00119 | 3953 ft | 206 kts | 57° |
| 2026-04-11 08:31 | 51.22202 | 23.02084 | 3640 ft | 203 kts | 57° |
| 2026-04-11 08:31 | 51.22866 | 23.03969 | 3455 ft | 195 kts | 57° |
| 2026-04-11 08:32 | 51.23556 | 23.05803 | 3245 ft | 187 kts | 47° |
| 2026-04-11 08:32 | 51.24604 | 23.06840 | 3021 ft | 176 kts | 3° |
| 2026-04-11 08:32 | 51.25740 | 23.06450 | 2884 ft | 170 kts | 327° |
| 2026-04-11 08:32 | 51.26567 | 23.05080 | 2717 ft | 168 kts | 309° |
| 2026-04-11 08:33 | 51.27303 | 23.03676 | 2548 ft | 159 kts | 312° |
| 2026-04-11 08:33 | 51.28007 | 23.02382 | 2491 ft | 152 kts | 312° |
| 2026-04-11 08:33 | 51.28705 | 23.01092 | 2490 ft | 154 kts | 311° |
| 2026-04-11 08:33 | 51.29316 | 22.99739 | 2353 ft | 149 kts | 293° |
| 2026-04-11 08:34 | 51.29339 | 22.98106 | 2284 ft | 152 kts | 258° |
| 2026-04-11 08:34 | 51.28741 | 22.96722 | 2203 ft | 156 kts | 225° |
| 2026-04-11 08:34 | 51.27982 | 22.95505 | 2139 ft | 158 kts | 232° |
| 2026-04-11 08:34 | 51.27288 | 22.94163 | 2002 ft | 153 kts | 243° |
| 2026-04-11 08:35 | 51.27075 | 22.92631 | 2019 ft | 140 kts | 278° |
| 2026-04-11 08:35 | 51.27061 | 22.91002 | 1970 ft | 149 kts | 255° |
| 2026-04-11 08:35 | 51.26548 | 22.89560 | 2000 ft | 153 kts | 244° |
| 2026-04-11 08:35 | 51.26207 | 22.87984 | 1919 ft | 150 kts | 266° |
| 2026-04-11 08:36 | 51.26144 | 22.86328 | 1770 ft | 152 kts | 256° |
| 2026-04-11 08:36 | 51.25870 | 22.84687 | 1554 ft | 150 kts | 264° |
| 2026-04-11 08:36 | 51.25735 | 22.83054 | 1268 ft | 148 kts | 260° |
| 2026-04-11 08:36 | 51.25475 | 22.81470 | 855 ft | 146 kts | 258° |
| 2026-04-11 08:37 | 51.25236 | 22.80002 | 837 ft | 140 kts | 262° |
| 2026-04-11 08:37 | 51.25051 | 22.78485 | 854 ft | 137 kts | 257° |
| 2026-04-11 08:37 | 51.24817 | 22.76982 | 838 ft | 142 kts | 258° |
| 2026-04-11 08:37 | 51.24599 | 22.75424 | 781 ft | 146 kts | 259° |
| 2026-04-11 08:38 | 51.24370 | 22.73822 | 683 ft | 148 kts | 257° |
| 2026-04-11 08:38 | 51.24142 | 22.72256 | 646 ft | 140 kts | 257° |
| 2026-04-11 08:38 | 51.23962 | 22.70944 | 645 ft | 92 kts | 257° |
| 2026-04-11 08:38 | 51.23874 | 22.70331 | 633 ft | 40 kts | 257° |
| 2026-04-11 08:39 | 51.23822 | 22.69964 | 637 ft | 30 kts | 257° |
| 2026-04-11 08:39 | 51.23780 | 22.69702 | 641 ft | 16 kts | 247° |
| 2026-04-11 08:39 | 51.23713 | 22.69628 | 642 ft | 8 kts | 152° |
| 2026-04-11 08:39 | 51.23683 | 22.69696 | 643 ft | 7 kts | 118° |
| 2026-04-11 08:40 | 51.23655 | 22.69761 | 643 ft | 7 kts | 150° |
| 2026-04-11 08:40 | 51.23618 | 22.69729 | 643 ft | 7 kts | 268° |
| 2026-04-11 08:40 | 51.23646 | 22.69661 | 643 ft | 8 kts | 328° |
| 2026-04-11 08:40 | 51.23707 | 22.69636 | 644 ft | 10 kts | 348° |
| 2026-04-11 08:41 | 51.23771 | 22.69701 | 640 ft | 15 kts | 68° |
| 2026-04-11 08:41 | 51.23804 | 22.69884 | 636 ft | 19 kts | 77° |
| 2026-04-11 08:41 | 51.23832 | 22.70095 | 639 ft | 20 kts | 78° |
| 2026-04-11 08:41 | 51.23863 | 22.70314 | 641 ft | 20 kts | 77° |
| 2026-04-11 08:42 | 51.23895 | 22.70527 | 645 ft | 19 kts | 77° |
| 2026-04-11 08:42 | 51.23925 | 22.70733 | 645 ft | 19 kts | 77° |
| 2026-04-11 08:42 | 51.23957 | 22.70931 | 645 ft | 18 kts | 76° |
| 2026-04-11 08:43 | 51.23979 | 22.71308 | 648 ft | 17 kts | 120° |
| 2026-04-11 08:43 | 51.23885 | 22.71399 | 650 ft | 16 kts | 167° |
| 2026-04-11 08:43 | 51.23787 | 22.71435 | 652 ft | 12 kts | 167° |
| 2026-04-11 08:43 | 51.23724 | 22.71480 | 652 ft | 8 kts | 128° |
| 2026-04-11 08:44 | 51.23697 | 22.71525 | 652 ft | 1 kts | 160° |
| 2026-04-11 08:44 | 51.23686 | 22.71530 | 652 ft | 4 kts | 164° |
| 2026-04-11 08:44 | 51.23673 | 22.71535 | 652 ft | 3 kts | 166° |
| 2026-04-11 08:44 | 51.23664 | 22.71538 | 652 ft | 1 kts | 166° |
| 2026-04-11 08:45 | 51.23659 | 22.71541 | 652 ft | 0 kts | 166° |